sensor_id;sensor_type;location;lat;lon;timestamp;pressure;altitude;pressure_sealevel;temperature;humidity
19128;BME280;9696;53.686;10.094;2022-11-09T00:01:42;100411.41;;;13.14;73.09
19128;BME280;9696;53.686;10.094;2022-11-09T00:04:11;100400.38;;;13.18;73.34
19128;BME280;9696;53.686;10.094;2022-11-09T00:06:40;100406.00;;;13.23;73.15
19128;BME280;9696;53.686;10.094;2022-11-09T00:09:11;100395.16;;;13.27;72.98
19128;BME280;9696;53.686;10.094;2022-11-09T00:11:40;100400.72;;;13.23;73.42
19128;BME280;9696;53.686;10.094;2022-11-09T00:14:13;100409.47;;;13.24;73.05
19128;BME280;9696;53.686;10.094;2022-11-09T00:16:42;100406.22;;;13.30;73.17
19128;BME280;9696;53.686;10.094;2022-11-09T00:19:11;100400.63;;;13.33;72.77
19128;BME280;9696;53.686;10.094;2022-11-09T00:21:40;100401.25;;;13.27;72.87
19128;BME280;9696;53.686;10.094;2022-11-09T00:24:11;100402.22;;;13.26;73.01
19128;BME280;9696;53.686;10.094;2022-11-09T00:26:40;100397.75;;;13.18;73.90
19128;BME280;9696;53.686;10.094;2022-11-09T00:29:09;100399.56;;;13.18;73.28
19128;BME280;9696;53.686;10.094;2022-11-09T00:31:38;100391.97;;;13.15;73.86
19128;BME280;9696;53.686;10.094;2022-11-09T00:34:07;100385.19;;;13.12;74.09
19128;BME280;9696;53.686;10.094;2022-11-09T00:36:36;100381.75;;;13.12;73.79
19128;BME280;9696;53.686;10.094;2022-11-09T00:39:08;100379.16;;;13.20;73.77
19128;BME280;9696;53.686;10.094;2022-11-09T00:41:39;100378.13;;;13.13;74.07
19128;BME280;9696;53.686;10.094;2022-11-09T00:44:08;100378.88;;;13.05;74.59
19128;BME280;9696;53.686;10.094;2022-11-09T00:46:37;100380.38;;;13.08;74.05
19128;BME280;9696;53.686;10.094;2022-11-09T00:49:06;100382.22;;;13.07;74.76
19128;BME280;9696;53.686;10.094;2022-11-09T00:51:35;100376.25;;;13.05;74.61
19128;BME280;9696;53.686;10.094;2022-11-09T00:54:04;100387.00;;;13.12;74.22
19128;BME280;9696;53.686;10.094;2022-11-09T00:56:34;100377.38;;;12.95;75.03
19128;BME280;9696;53.686;10.094;2022-11-09T00:59:05;100377.19;;;12.96;75.08
19128;BME280;9696;53.686;10.094;2022-11-09T01:01:34;100369.31;;;13.04;74.55
19128;BME280;9696;53.686;10.094;2022-11-09T01:04:05;100382.69;;;13.03;74.88
19128;BME280;9696;53.686;10.094;2022-11-09T01:06:34;100376.31;;;13.13;74.25
19128;BME280;9696;53.686;10.094;2022-11-09T01:09:03;100371.78;;;12.98;74.96
19128;BME280;9696;53.686;10.094;2022-11-09T01:11:32;100369.19;;;13.06;74.06
19128;BME280;9696;53.686;10.094;2022-11-09T01:14:01;100365.69;;;12.97;75.05
19128;BME280;9696;53.686;10.094;2022-11-09T01:16:32;100359.44;;;12.98;75.06
19128;BME280;9696;53.686;10.094;2022-11-09T01:19:04;100366.81;;;12.95;74.58
19128;BME280;9696;53.686;10.094;2022-11-09T01:21:33;100371.28;;;12.94;75.38
19128;BME280;9696;53.686;10.094;2022-11-09T01:24:02;100363.50;;;12.93;75.73
19128;BME280;9696;53.686;10.094;2022-11-09T01:26:31;100361.88;;;12.92;74.99
19128;BME280;9696;53.686;10.094;2022-11-09T01:29:00;100358.19;;;12.85;75.23
19128;BME280;9696;53.686;10.094;2022-11-09T01:31:33;100358.84;;;12.79;75.74
19128;BME280;9696;53.686;10.094;2022-11-09T01:34:02;100358.75;;;12.62;76.85
19128;BME280;9696;53.686;10.094;2022-11-09T01:36:33;100359.16;;;12.50;77.10
19128;BME280;9696;53.686;10.094;2022-11-09T01:39:02;100353.75;;;12.51;77.43
19128;BME280;9696;53.686;10.094;2022-11-09T01:41:31;100347.72;;;12.41;77.10
19128;BME280;9696;53.686;10.094;2022-11-09T01:44:05;100347.72;;;12.41;77.80
19128;BME280;9696;53.686;10.094;2022-11-09T01:46:44;100346.84;;;12.33;78.27
19128;BME280;9696;53.686;10.094;2022-11-09T01:49:19;100356.06;;;12.28;78.29
19128;BME280;9696;53.686;10.094;2022-11-09T01:51:53;100358.63;;;12.20;78.47
19128;BME280;9696;53.686;10.094;2022-11-09T01:54:27;100360.69;;;12.17;79.18
19128;BME280;9696;53.686;10.094;2022-11-09T01:57:00;100350.41;;;12.23;78.53
19128;BME280;9696;53.686;10.094;2022-11-09T01:59:34;100351.25;;;12.24;78.67
19128;BME280;9696;53.686;10.094;2022-11-09T02:02:07;100342.28;;;12.17;78.83
19128;BME280;9696;53.686;10.094;2022-11-09T02:04:43;100353.75;;;12.08;79.30
19128;BME280;9696;53.686;10.094;2022-11-09T02:07:16;100342.09;;;12.10;79.33
19128;BME280;9696;53.686;10.094;2022-11-09T02:09:48;100354.56;;;12.08;79.10
19128;BME280;9696;53.686;10.094;2022-11-09T02:12:20;100353.97;;;11.97;80.28
19128;BME280;9696;53.686;10.094;2022-11-09T02:14:51;100347.72;;;12.15;79.30
19128;BME280;9696;53.686;10.094;2022-11-09T02:17:22;100354.47;;;12.18;79.30
19128;BME280;9696;53.686;10.094;2022-11-09T02:19:52;100346.75;;;12.16;79.17
19128;BME280;9696;53.686;10.094;2022-11-09T02:22:22;100345.59;;;12.19;79.21
19128;BME280;9696;53.686;10.094;2022-11-09T02:24:52;100343.50;;;12.22;79.53
19128;BME280;9696;53.686;10.094;2022-11-09T02:27:23;100340.78;;;12.32;78.69
19128;BME280;9696;53.686;10.094;2022-11-09T02:29:53;100349.72;;;12.39;78.66
19128;BME280;9696;53.686;10.094;2022-11-09T02:32:27;100338.03;;;12.42;78.30
19128;BME280;9696;53.686;10.094;2022-11-09T02:34:58;100333.25;;;12.37;78.63
19128;BME280;9696;53.686;10.094;2022-11-09T02:37:32;100335.63;;;12.48;78.34
19128;BME280;9696;53.686;10.094;2022-11-09T02:40:06;100333.47;;;12.44;78.63
19128;BME280;9696;53.686;10.094;2022-11-09T02:42:36;100332.31;;;12.46;78.61
19128;BME280;9696;53.686;10.094;2022-11-09T02:45:06;100331.59;;;12.36;79.05
19128;BME280;9696;53.686;10.094;2022-11-09T02:47:37;100327.31;;;12.35;79.37
19128;BME280;9696;53.686;10.094;2022-11-09T02:50:06;100331.44;;;12.38;79.25
19128;BME280;9696;53.686;10.094;2022-11-09T02:52:37;100333.56;;;12.34;80.04
19128;BME280;9696;53.686;10.094;2022-11-09T02:55:08;100338.66;;;12.36;79.25
19128;BME280;9696;53.686;10.094;2022-11-09T02:57:39;100342.66;;;12.40;78.98
19128;BME280;9696;53.686;10.094;2022-11-09T03:00:11;100343.47;;;12.40;79.17
19128;BME280;9696;53.686;10.094;2022-11-09T03:02:41;100343.25;;;12.34;79.83
19128;BME280;9696;53.686;10.094;2022-11-09T03:05:11;100346.25;;;12.39;79.13
19128;BME280;9696;53.686;10.094;2022-11-09T03:07:44;100333.41;;;12.36;79.62
19128;BME280;9696;53.686;10.094;2022-11-09T03:10:14;100344.38;;;12.31;79.69
19128;BME280;9696;53.686;10.094;2022-11-09T03:12:43;100341.25;;;12.27;80.22
19128;BME280;9696;53.686;10.094;2022-11-09T03:15:14;100344.00;;;12.26;79.99
19128;BME280;9696;53.686;10.094;2022-11-09T03:17:45;100345.53;;;12.28;80.14
19128;BME280;9696;53.686;10.094;2022-11-09T03:20:16;100345.47;;;12.20;80.34
19128;BME280;9696;53.686;10.094;2022-11-09T03:22:46;100345.97;;;12.24;80.34
19128;BME280;9696;53.686;10.094;2022-11-09T03:25:16;100346.31;;;12.29;80.02
19128;BME280;9696;53.686;10.094;2022-11-09T03:27:45;100336.28;;;12.24;80.35
19128;BME280;9696;53.686;10.094;2022-11-09T03:30:15;100337.19;;;12.15;80.85
19128;BME280;9696;53.686;10.094;2022-11-09T03:32:45;100335.75;;;12.21;80.35
19128;BME280;9696;53.686;10.094;2022-11-09T03:35:17;100342.00;;;12.20;80.85
19128;BME280;9696;53.686;10.094;2022-11-09T03:37:48;100328.69;;;12.21;80.77
19128;BME280;9696;53.686;10.094;2022-11-09T03:40:17;100326.38;;;12.18;80.75
19128;BME280;9696;53.686;10.094;2022-11-09T03:42:49;100328.63;;;12.13;80.75
19128;BME280;9696;53.686;10.094;2022-11-09T03:45:18;100333.38;;;12.10;80.80
19128;BME280;9696;53.686;10.094;2022-11-09T03:47:47;100344.13;;;12.16;81.37
19128;BME280;9696;53.686;10.094;2022-11-09T03:50:17;100337.19;;;12.15;80.96
19128;BME280;9696;53.686;10.094;2022-11-09T03:52:47;100340.66;;;12.16;81.03
19128;BME280;9696;53.686;10.094;2022-11-09T03:55:16;100335.53;;;12.14;81.00
19128;BME280;9696;53.686;10.094;2022-11-09T03:57:46;100342.28;;;12.17;81.40
19128;BME280;9696;53.686;10.094;2022-11-09T04:00:17;100344.25;;;12.15;81.62
19128;BME280;9696;53.686;10.094;2022-11-09T04:02:47;100337.34;;;12.14;81.43
19128;BME280;9696;53.686;10.094;2022-11-09T04:05:16;100331.88;;;12.07;81.77
19128;BME280;9696;53.686;10.094;2022-11-09T04:07:54;100332.53;;;12.09;81.72
19128;BME280;9696;53.686;10.094;2022-11-09T04:10:24;100332.84;;;12.06;81.97
19128;BME280;9696;53.686;10.094;2022-11-09T04:12:54;100334.94;;;12.03;82.10
19128;BME280;9696;53.686;10.094;2022-11-09T04:15:23;100333.47;;;12.00;82.18
19128;BME280;9696;53.686;10.094;2022-11-09T04:17:57;100335.66;;;12.05;82.38
19128;BME280;9696;53.686;10.094;2022-11-09T04:20:27;100334.72;;;12.14;81.94
19128;BME280;9696;53.686;10.094;2022-11-09T04:23:00;100326.44;;;12.09;82.56
19128;BME280;9696;53.686;10.094;2022-11-09T04:25:32;100332.47;;;12.19;82.19
19128;BME280;9696;53.686;10.094;2022-11-09T04:28:03;100323.16;;;12.24;81.64
19128;BME280;9696;53.686;10.094;2022-11-09T04:30:34;100325.59;;;12.26;81.96
19128;BME280;9696;53.686;10.094;2022-11-09T04:33:04;100325.28;;;12.29;81.43
19128;BME280;9696;53.686;10.094;2022-11-09T04:35:34;100328.41;;;12.50;81.08
19128;BME280;9696;53.686;10.094;2022-11-09T04:38:06;100330.13;;;12.59;80.71
19128;BME280;9696;53.686;10.094;2022-11-09T04:40:36;100315.63;;;12.55;80.71
19128;BME280;9696;53.686;10.094;2022-11-09T04:43:06;100321.03;;;12.54;81.17
19128;BME280;9696;53.686;10.094;2022-11-09T04:45:36;100319.03;;;12.48;81.43
19128;BME280;9696;53.686;10.094;2022-11-09T04:48:06;100314.16;;;12.35;81.64
19128;BME280;9696;53.686;10.094;2022-11-09T04:50:35;100315.97;;;12.35;81.84
19128;BME280;9696;53.686;10.094;2022-11-09T04:53:07;100325.78;;;12.24;82.30
19128;BME280;9696;53.686;10.094;2022-11-09T04:55:37;100337.25;;;12.23;82.39
19128;BME280;9696;53.686;10.094;2022-11-09T04:58:06;100326.75;;;12.23;82.61
19128;BME280;9696;53.686;10.094;2022-11-09T05:00:36;100330.53;;;12.29;82.00
19128;BME280;9696;53.686;10.094;2022-11-09T05:03:06;100322.31;;;12.24;82.31
19128;BME280;9696;53.686;10.094;2022-11-09T05:05:37;100328.41;;;12.50;81.63
19128;BME280;9696;53.686;10.094;2022-11-09T05:08:15;100325.81;;;12.33;81.58
19128;BME280;9696;53.686;10.094;2022-11-09T05:10:44;100331.22;;;12.31;81.86
19128;BME280;9696;53.686;10.094;2022-11-09T05:13:13;100326.63;;;12.33;82.02
19128;BME280;9696;53.686;10.094;2022-11-09T05:15:42;100335.16;;;12.27;82.46
19128;BME280;9696;53.686;10.094;2022-11-09T05:18:11;100343.63;;;12.21;82.43
19128;BME280;9696;53.686;10.094;2022-11-09T05:20:40;100341.78;;;12.13;82.58
19128;BME280;9696;53.686;10.094;2022-11-09T05:23:09;100345.41;;;12.12;83.12
19128;BME280;9696;53.686;10.094;2022-11-09T05:25:57;100357.41;;;12.15;83.23
19128;BME280;9696;53.686;10.094;2022-11-09T05:28:26;100358.97;;;12.25;82.48
19128;BME280;9696;53.686;10.094;2022-11-09T05:30:55;100350.34;;;12.15;82.86
19128;BME280;9696;53.686;10.094;2022-11-09T05:33:25;100344.91;;;12.17;83.08
19128;BME280;9696;53.686;10.094;2022-11-09T05:35:54;100347.25;;;12.20;82.63
19128;BME280;9696;53.686;10.094;2022-11-09T05:38:24;100350.31;;;12.33;82.46
19128;BME280;9696;53.686;10.094;2022-11-09T05:40:54;100338.59;;;12.27;82.74
19128;BME280;9696;53.686;10.094;2022-11-09T05:43:24;100345.66;;;12.27;82.44
19128;BME280;9696;53.686;10.094;2022-11-09T05:45:53;100357.38;;;12.33;82.44
19128;BME280;9696;53.686;10.094;2022-11-09T05:48:22;100353.13;;;12.14;86.37
19128;BME280;9696;53.686;10.094;2022-11-09T05:50:51;100343.59;;;11.95;87.46
19128;BME280;9696;53.686;10.094;2022-11-09T05:53:26;100327.91;;;11.86;88.25
19128;BME280;9696;53.686;10.094;2022-11-09T05:55:55;100324.38;;;11.77;88.41
19128;BME280;9696;53.686;10.094;2022-11-09T05:58:25;100326.22;;;11.67;88.99
19128;BME280;9696;53.686;10.094;2022-11-09T06:00:54;100328.31;;;11.63;89.63
19128;BME280;9696;53.686;10.094;2022-11-09T06:03:23;100331.84;;;11.54;89.92
19128;BME280;9696;53.686;10.094;2022-11-09T06:05:52;100333.63;;;11.54;89.38
19128;BME280;9696;53.686;10.094;2022-11-09T06:08:21;100333.94;;;11.51;89.80
19128;BME280;9696;53.686;10.094;2022-11-09T06:10:50;100338.22;;;11.52;89.63
19128;BME280;9696;53.686;10.094;2022-11-09T06:13:26;100338.22;;;11.52;89.42
19128;BME280;9696;53.686;10.094;2022-11-09T06:15:57;100340.41;;;11.56;89.40
19128;BME280;9696;53.686;10.094;2022-11-09T06:18:28;100346.94;;;11.52;89.14
19128;BME280;9696;53.686;10.094;2022-11-09T06:21:00;100346.41;;;11.49;89.55
19128;BME280;9696;53.686;10.094;2022-11-09T06:23:29;100346.19;;;11.60;88.60
19128;BME280;9696;53.686;10.094;2022-11-09T06:26:00;100353.63;;;11.64;88.17
19128;BME280;9696;53.686;10.094;2022-11-09T06:28:32;100357.22;;;11.63;89.14
19128;BME280;9696;53.686;10.094;2022-11-09T06:31:02;100354.94;;;11.78;87.68
19128;BME280;9696;53.686;10.094;2022-11-09T06:33:33;100360.72;;;11.81;87.37
19128;BME280;9696;53.686;10.094;2022-11-09T06:36:03;100362.66;;;11.79;87.64
19128;BME280;9696;53.686;10.094;2022-11-09T06:38:32;100363.13;;;11.93;86.55
19128;BME280;9696;53.686;10.094;2022-11-09T06:41:01;100365.47;;;11.96;86.45
19128;BME280;9696;53.686;10.094;2022-11-09T06:43:31;100373.25;;;11.88;87.47
19128;BME280;9696;53.686;10.094;2022-11-09T06:46:02;100373.41;;;12.04;86.23
19128;BME280;9696;53.686;10.094;2022-11-09T06:48:32;100378.06;;;12.10;85.67
19128;BME280;9696;53.686;10.094;2022-11-09T06:51:02;100375.81;;;12.15;85.30
19128;BME280;9696;53.686;10.094;2022-11-09T06:53:31;100385.28;;;12.08;86.04
19128;BME280;9696;53.686;10.094;2022-11-09T06:56:02;100379.50;;;12.04;86.19
19128;BME280;9696;53.686;10.094;2022-11-09T06:58:33;100389.19;;;12.04;85.69
19128;BME280;9696;53.686;10.094;2022-11-09T07:01:06;100392.09;;;12.18;85.15
19128;BME280;9696;53.686;10.094;2022-11-09T07:03:36;100399.69;;;12.21;84.92
19128;BME280;9696;53.686;10.094;2022-11-09T07:06:08;100394.81;;;12.26;84.63
19128;BME280;9696;53.686;10.094;2022-11-09T07:08:38;100400.97;;;12.17;84.82
19128;BME280;9696;53.686;10.094;2022-11-09T07:11:09;100399.09;;;12.10;85.28
19128;BME280;9696;53.686;10.094;2022-11-09T07:13:40;100400.44;;;12.14;85.16
19128;BME280;9696;53.686;10.094;2022-11-09T07:16:09;100400.44;;;12.14;84.89
19128;BME280;9696;53.686;10.094;2022-11-09T07:18:40;100400.69;;;12.20;85.16
19128;BME280;9696;53.686;10.094;2022-11-09T07:21:09;100394.50;;;12.29;84.57
19128;BME280;9696;53.686;10.094;2022-11-09T07:23:41;100412.47;;;12.34;84.44
19128;BME280;9696;53.686;10.094;2022-11-09T07:26:11;100408.03;;;12.35;83.77
19128;BME280;9696;53.686;10.094;2022-11-09T07:28:41;100406.44;;;12.42;83.35
19128;BME280;9696;53.686;10.094;2022-11-09T07:31:10;100410.41;;;12.46;83.65
19128;BME280;9696;53.686;10.094;2022-11-09T07:33:39;100409.97;;;12.50;83.43
19128;BME280;9696;53.686;10.094;2022-11-09T07:36:08;100416.44;;;12.56;83.21
19128;BME280;9696;53.686;10.094;2022-11-09T07:38:37;100414.47;;;12.58;83.09
19128;BME280;9696;53.686;10.094;2022-11-09T07:41:06;100416.56;;;12.54;83.77
19128;BME280;9696;53.686;10.094;2022-11-09T07:43:35;100421.38;;;12.59;83.48
19128;BME280;9696;53.686;10.094;2022-11-09T07:46:06;100417.72;;;12.52;83.90
19128;BME280;9696;53.686;10.094;2022-11-09T07:48:35;100418.00;;;12.49;83.93
19128;BME280;9696;53.686;10.094;2022-11-09T07:51:04;100422.94;;;12.69;82.72
19128;BME280;9696;53.686;10.094;2022-11-09T07:53:33;100431.66;;;12.70;82.83
19128;BME280;9696;53.686;10.094;2022-11-09T07:56:03;100426.06;;;12.73;83.11
19128;BME280;9696;53.686;10.094;2022-11-09T07:58:32;100426.34;;;12.88;82.55
19128;BME280;9696;53.686;10.094;2022-11-09T08:01:08;100423.88;;;13.12;81.22
19128;BME280;9696;53.686;10.094;2022-11-09T08:03:37;100430.59;;;13.06;81.63
19128;BME280;9696;53.686;10.094;2022-11-09T08:06:06;100427.75;;;13.26;80.42
19128;BME280;9696;53.686;10.094;2022-11-09T08:08:39;100433.53;;;13.29;80.00
19128;BME280;9696;53.686;10.094;2022-11-09T08:11:08;100436.84;;;13.39;79.94
19128;BME280;9696;53.686;10.094;2022-11-09T08:13:38;100443.34;;;13.53;78.84
19128;BME280;9696;53.686;10.094;2022-11-09T08:16:08;100439.19;;;13.42;79.34
19128;BME280;9696;53.686;10.094;2022-11-09T08:18:37;100443.13;;;13.38;79.65
19128;BME280;9696;53.686;10.094;2022-11-09T08:21:06;100438.69;;;13.39;79.21
19128;BME280;9696;53.686;10.094;2022-11-09T08:23:35;100437.22;;;13.44;79.18
19128;BME280;9696;53.686;10.094;2022-11-09T08:26:05;100444.00;;;13.47;78.92
19128;BME280;9696;53.686;10.094;2022-11-09T08:28:34;100431.97;;;13.52;78.93
19128;BME280;9696;53.686;10.094;2022-11-09T08:31:05;100428.88;;;13.57;78.90
19128;BME280;9696;53.686;10.094;2022-11-09T08:33:37;100427.09;;;13.65;78.16
19128;BME280;9696;53.686;10.094;2022-11-09T08:36:11;100429.44;;;13.77;77.29
19128;BME280;9696;53.686;10.094;2022-11-09T08:38:41;100432.06;;;13.77;77.77
19128;BME280;9696;53.686;10.094;2022-11-09T08:41:11;100438.66;;;13.81;76.85
19128;BME280;9696;53.686;10.094;2022-11-09T08:43:41;100435.56;;;13.85;77.21
19128;BME280;9696;53.686;10.094;2022-11-09T08:46:10;100434.72;;;13.85;76.60
19128;BME280;9696;53.686;10.094;2022-11-09T08:48:40;100438.69;;;13.89;76.46
19128;BME280;9696;53.686;10.094;2022-11-09T08:51:09;100446.28;;;13.92;77.21
19128;BME280;9696;53.686;10.094;2022-11-09T08:53:38;100438.53;;;14.06;76.30
19128;BME280;9696;53.686;10.094;2022-11-09T08:56:08;100434.63;;;14.18;75.88
19128;BME280;9696;53.686;10.094;2022-11-09T08:58:38;100425.09;;;14.26;76.05
19128;BME280;9696;53.686;10.094;2022-11-09T09:01:08;100430.88;;;14.37;75.11
19128;BME280;9696;53.686;10.094;2022-11-09T09:03:44;100426.75;;;14.59;74.35
19128;BME280;9696;53.686;10.094;2022-11-09T09:06:14;100439.59;;;14.70;74.21
19128;BME280;9696;53.686;10.094;2022-11-09T09:08:43;100439.94;;;14.75;73.61
19128;BME280;9696;53.686;10.094;2022-11-09T09:11:12;100440.94;;;14.66;72.88
19128;BME280;9696;53.686;10.094;2022-11-09T09:13:41;100440.63;;;14.61;73.36
19128;BME280;9696;53.686;10.094;2022-11-09T09:16:12;100442.94;;;14.48;73.57
19128;BME280;9696;53.686;10.094;2022-11-09T09:18:41;100444.59;;;14.49;73.13
19128;BME280;9696;53.686;10.094;2022-11-09T09:21:12;100441.44;;;14.37;73.24
19128;BME280;9696;53.686;10.094;2022-11-09T09:23:41;100444.72;;;14.55;73.53
19128;BME280;9696;53.686;10.094;2022-11-09T09:26:10;100445.06;;;14.44;72.78
19128;BME280;9696;53.686;10.094;2022-11-09T09:28:39;100454.13;;;14.58;73.33
19128;BME280;9696;53.686;10.094;2022-11-09T09:31:08;100449.19;;;14.63;72.85
19128;BME280;9696;53.686;10.094;2022-11-09T09:33:44;100450.00;;;14.72;71.75
19128;BME280;9696;53.686;10.094;2022-11-09T09:36:18;100459.72;;;14.95;71.65
19128;BME280;9696;53.686;10.094;2022-11-09T09:38:50;100460.72;;;14.94;70.69
19128;BME280;9696;53.686;10.094;2022-11-09T09:41:23;100460.56;;;14.80;71.52
19128;BME280;9696;53.686;10.094;2022-11-09T09:43:57;100463.69;;;14.91;71.79
19128;BME280;9696;53.686;10.094;2022-11-09T09:46:34;100471.28;;;14.86;72.01
19128;BME280;9696;53.686;10.094;2022-11-09T09:49:10;100469.31;;;14.48;71.66
19128;BME280;9696;53.686;10.094;2022-11-09T09:51:47;100477.34;;;14.22;72.28
19128;BME280;9696;53.686;10.094;2022-11-09T09:54:20;100469.25;;;14.15;72.68
19128;BME280;9696;53.686;10.094;2022-11-09T09:56:52;100477.97;;;14.08;73.07
19128;BME280;9696;53.686;10.094;2022-11-09T09:59:26;100471.88;;;14.15;73.25
19128;BME280;9696;53.686;10.094;2022-11-09T10:01:59;100478.00;;;14.32;72.34
19128;BME280;9696;53.686;10.094;2022-11-09T10:04:34;100480.84;;;14.47;71.18
19128;BME280;9696;53.686;10.094;2022-11-09T10:07:16;100485.66;;;14.59;70.83
19128;BME280;9696;53.686;10.094;2022-11-09T10:10:01;100485.50;;;14.61;71.08
19128;BME280;9696;53.686;10.094;2022-11-09T10:12:39;100481.34;;;14.83;70.86
19128;BME280;9696;53.686;10.094;2022-11-09T10:15:18;100480.22;;;14.85;70.57
19128;BME280;9696;53.686;10.094;2022-11-09T10:18:00;100485.28;;;15.11;70.10
19128;BME280;9696;53.686;10.094;2022-11-09T10:20:53;100482.78;;;15.18;70.15
19128;BME280;9696;53.686;10.094;2022-11-09T10:23:36;100485.16;;;14.80;69.89
19128;BME280;9696;53.686;10.094;2022-11-09T10:26:16;100484.97;;;14.98;69.70
19128;BME280;9696;53.686;10.094;2022-11-09T10:28:49;100485.31;;;14.95;70.71
19128;BME280;9696;53.686;10.094;2022-11-09T10:31:41;100479.88;;;14.72;70.94
19128;BME280;9696;53.686;10.094;2022-11-09T10:34:16;100482.19;;;14.59;71.79
19128;BME280;9696;53.686;10.094;2022-11-09T10:36:52;100482.19;;;14.75;71.02
19128;BME280;9696;53.686;10.094;2022-11-09T10:39:27;100476.09;;;14.75;70.01
19128;BME280;9696;53.686;10.094;2022-11-09T10:42:20;100474.94;;;14.69;69.89
19128;BME280;9696;53.686;10.094;2022-11-09T10:45:20;100482.53;;;14.80;69.99
19128;BME280;9696;53.686;10.094;2022-11-09T10:48:11;100475.72;;;14.94;69.51
19128;BME280;9696;53.686;10.094;2022-11-09T10:50:59;100485.16;;;14.96;70.04
19128;BME280;9696;53.686;10.094;2022-11-09T10:53:47;100486.97;;;14.80;70.15
19128;BME280;9696;53.686;10.094;2022-11-09T10:56:43;100481.69;;;14.72;70.17
19128;BME280;9696;53.686;10.094;2022-11-09T10:59:52;100480.69;;;14.48;70.48
19128;BME280;9696;53.686;10.094;2022-11-09T11:02:43;100477.72;;;14.59;69.17
19128;BME280;9696;53.686;10.094;2022-11-09T11:05:32;100483.34;;;14.65;70.13
19128;BME280;9696;53.686;10.094;2022-11-09T11:08:28;100478.00;;;15.13;69.44
19128;BME280;9696;53.686;10.094;2022-11-09T11:11:21;100478.69;;;15.15;68.65
19128;BME280;9696;53.686;10.094;2022-11-09T11:14:30;100478.41;;;15.49;67.57
19128;BME280;9696;53.686;10.094;2022-11-09T11:17:21;100482.25;;;15.38;66.86
19128;BME280;9696;53.686;10.094;2022-11-09T11:20:29;100486.56;;;15.31;67.61
19128;BME280;9696;53.686;10.094;2022-11-09T11:23:19;100486.16;;;14.71;68.36
19128;BME280;9696;53.686;10.094;2022-11-09T11:26:31;100478.53;;;15.72;64.40
19128;BME280;9696;53.686;10.094;2022-11-09T11:29:40;100461.44;;;16.13;62.62
19128;BME280;9696;53.686;10.094;2022-11-09T11:32:29;100464.16;;;16.50;63.00
19128;BME280;9696;53.686;10.094;2022-11-09T11:35:22;100469.53;;;16.42;62.55
19128;BME280;9696;53.686;10.094;2022-11-09T11:38:24;100478.56;;;16.48;62.68
19128;BME280;9696;53.686;10.094;2022-11-09T11:41:39;100486.72;;;15.85;63.52
19128;BME280;9696;53.686;10.094;2022-11-09T11:44:44;100487.94;;;15.03;66.08
19128;BME280;9696;53.686;10.094;2022-11-09T11:48:05;100496.38;;;14.90;67.69
19128;BME280;9696;53.686;10.094;2022-11-09T11:51:02;100481.03;;;14.70;67.58
19128;BME280;9696;53.686;10.094;2022-11-09T11:54:05;100487.63;;;14.98;67.46
19128;BME280;9696;53.686;10.094;2022-11-09T11:57:03;100494.41;;;14.92;67.42
19128;BME280;9696;53.686;10.094;2022-11-09T12:00:03;100489.28;;;14.99;66.70
19128;BME280;9696;53.686;10.094;2022-11-09T12:03:25;100492.25;;;14.80;67.42
19128;BME280;9696;53.686;10.094;2022-11-09T12:06:26;100492.41;;;14.70;67.29
19128;BME280;9696;53.686;10.094;2022-11-09T12:09:26;100485.31;;;14.62;67.91
19128;BME280;9696;53.686;10.094;2022-11-09T12:12:22;100486.81;;;14.49;68.89
19128;BME280;9696;53.686;10.094;2022-11-09T12:15:24;100485.00;;;14.49;68.66
19128;BME280;9696;53.686;10.094;2022-11-09T12:18:31;100491.09;;;14.66;68.83
19128;BME280;9696;53.686;10.094;2022-11-09T12:21:25;100492.41;;;14.54;68.51
19128;BME280;9696;53.686;10.094;2022-11-09T12:24:21;100490.28;;;14.49;69.02
19128;BME280;9696;53.686;10.094;2022-11-09T12:27:43;100490.28;;;14.49;69.22
19128;BME280;9696;53.686;10.094;2022-11-09T12:30:44;100486.31;;;14.53;67.29
19128;BME280;9696;53.686;10.094;2022-11-09T12:33:41;100475.09;;;14.68;66.55
19128;BME280;9696;53.686;10.094;2022-11-09T12:36:37;100471.81;;;14.57;66.82
19128;BME280;9696;53.686;10.094;2022-11-09T12:39:30;100470.97;;;14.73;66.74
19128;BME280;9696;53.686;10.094;2022-11-09T12:42:22;100471.13;;;14.96;65.86
19128;BME280;9696;53.686;10.094;2022-11-09T12:45:20;100469.13;;;14.90;65.78
19128;BME280;9696;53.686;10.094;2022-11-09T12:48:20;100466.00;;;14.70;65.72
19128;BME280;9696;53.686;10.094;2022-11-09T12:51:08;100482.69;;;14.62;66.83
19128;BME280;9696;53.686;10.094;2022-11-09T12:53:57;100476.56;;;14.62;66.79
19128;BME280;9696;53.686;10.094;2022-11-09T12:56:56;100480.38;;;14.68;66.60
19128;BME280;9696;53.686;10.094;2022-11-09T12:59:46;100480.38;;;14.92;67.28
19128;BME280;9696;53.686;10.094;2022-11-09T13:02:41;100488.16;;;14.85;67.99
19128;BME280;9696;53.686;10.094;2022-11-09T13:05:33;100482.34;;;14.74;67.57
19128;BME280;9696;53.686;10.094;2022-11-09T13:08:25;100474.13;;;14.77;67.29
19128;BME280;9696;53.686;10.094;2022-11-09T13:11:19;100477.06;;;14.90;65.69
19128;BME280;9696;53.686;10.094;2022-11-09T13:14:32;100479.06;;;14.88;66.81
19128;BME280;9696;53.686;10.094;2022-11-09T13:20:50;100478.22;;;14.87;66.49
19128;BME280;9696;53.686;10.094;2022-11-09T13:23:43;100478.06;;;15.05;65.48
19128;BME280;9696;53.686;10.094;2022-11-09T13:26:57;100484.41;;;15.35;63.87
19128;BME280;9696;53.686;10.094;2022-11-09T13:29:49;100478.56;;;16.02;61.58
19128;BME280;9696;53.686;10.094;2022-11-09T13:36:19;100485.78;;;16.09;60.70
19128;BME280;9696;53.686;10.094;2022-11-09T13:39:29;100484.09;;;15.85;60.26
19128;BME280;9696;53.686;10.094;2022-11-09T13:42:27;100485.69;;;15.94;60.40
19128;BME280;9696;53.686;10.094;2022-11-09T13:45:25;100496.38;;;15.70;60.93